Time;durP1;ratioP1;P1;durP2;ratioP2;P2;SDS_P1;SDS_P2;PMS_P1;PMS_P2;Temp;Humidity;BMP_temperature;BMP_pressure;BME280_temperature;BME280_humidity;BME280_pressure;Samples;Min_cycle;Max_cycle;Signal;HPM_P1;HPM_P2
2024/03/08 00:01:55;;;;;;;;;;;;;;;-144.99;100.00;52517.41;5061619;28;20366;-66
2024/03/08 00:04:22;;;;;;;;;;;;;;;-144.99;100.00;52525.56;5058162;28;19933;-67
2024/03/08 00:06:50;;;;;;;;;;;;;;;-144.99;100.00;52472.56;5055265;28;19929;-67
2024/03/08 00:09:17;;;;;;;;;;;;;;;-144.99;100.00;52466.44;5058219;28;19928;-67
2024/03/08 00:11:43;;;;;;;;;;;;;;;-144.99;100.00;52488.84;5063779;28;19933;-68
2024/03/08 00:14:10;;;;;;;;;;;;;;;-144.99;100.00;52482.75;5056254;28;19937;-68
2024/03/08 00:16:38;;;;;;;;;;;;;;;-144.99;100.00;52482.75;5053955;28;19975;-68
2024/03/08 00:19:04;;;;;;;;;;;;;;;-144.99;100.00;52505.16;5059361;28;19944;-69
2024/03/08 00:21:31;;;;;;;;;;;;;;;-144.99;100.00;52488.84;5051909;28;19929;-65
2024/03/08 00:23:58;;;;;;;;;;;;;;;-144.99;100.00;52519.44;5057915;28;20019;-65
2024/03/08 00:26:24;;;;;;;;;;;;;;;-144.99;100.00;52484.78;5047320;28;20280;-65
2024/03/08 00:28:50;;;;;;;;;;;;;;;-144.99;100.00;52492.94;5040038;28;20428;-66
2024/03/08 00:31:17;;;;;;;;;;;;;;;-144.99;100.00;52525.56;5051003;28;20027;-66
2024/03/08 00:33:45;;;;;;;;;;;;;;;-144.99;100.00;52517.41;5049539;28;19925;-67
2024/03/08 00:36:12;;;;;;;;;;;;;;;-144.99;100.00;52480.72;5061870;28;20019;-66
2024/03/08 00:38:38;;;;;;;;;;;;;;;-144.99;100.00;52448.09;5048994;28;20332;-66
2024/03/08 00:41:05;;;;;;;;;;;;;;;-144.99;100.00;52497.00;5059987;28;19933;-66
2024/03/08 00:43:31;;;;;;;;;;;;;;;-144.99;100.00;52533.69;5051940;28;19964;-66
2024/03/08 00:45:58;;;;;;;;;;;;;;;-144.99;100.00;52480.72;5055782;28;19924;-66
2024/03/08 00:48:25;;;;;;;;;;;;;;;-144.99;100.00;52503.13;5047689;28;19964;-65
2024/03/08 00:50:52;;;;;;;;;;;;;;;-144.99;100.00;52494.97;5060121;28;20061;-66
2024/03/08 00:53:19;;;;;;;;;;;;;;;-144.99;100.00;52550.00;5047937;28;19968;-66
2024/03/08 00:55:46;;;;;;;;;;;;;;;-144.99;100.00;52562.25;5043025;28;20378;-66
2024/03/08 00:58:12;;;;;;;;;;;;;;;-144.99;100.00;52513.31;5057447;28;19925;-66
2024/03/08 01:00:39;;;;;;;;;;;;;;;-144.99;100.00;52513.31;5059097;28;20447;-66
2024/03/08 01:03:06;;;;;;;;;;;;;;;-144.99;100.00;52501.09;5058611;28;19925;-65
2024/03/08 01:05:33;;;;;;;;;;;;;;;-144.99;100.00;52517.41;5038175;28;19929;-65
2024/03/08 01:08:02;;;;;;;;;;;;;;;-144.99;100.00;52513.31;5056453;28;19983;-67
2024/03/08 01:10:29;;;;;;;;;;;;;;;-144.99;100.00;52505.16;4962413;22;19927;-70
2024/03/08 01:12:56;;;;;;;;;;;;;;;-144.99;100.00;52509.25;4925329;29;20373;-69
2024/03/08 01:15:23;;;;;;;;;;;;;;;-144.99;100.00;52529.63;4926166;28;19933;-70
2024/03/08 01:17:50;;;;;;;;;;;;;;;-144.99;100.00;52509.25;4931507;28;19931;-70
2024/03/08 01:20:17;;;;;;;;;;;;;;;-144.99;100.00;52490.91;4931203;28;19931;-71
2024/03/08 01:22:44;;;;;;;;;;;;;;;-144.99;100.00;52497.00;4927169;28;20022;-71
2024/03/08 01:25:12;;;;;;;;;;;;;;;-144.99;100.00;52531.66;4958183;28;19987;-71
2024/03/08 01:27:39;;;;;;;;;;;;;;;-144.99;100.00;52468.47;4927405;29;19954;-70
2024/03/08 01:30:06;;;;;;;;;;;;;;;-144.99;100.00;52545.94;4944622;28;19930;-74
2024/03/08 01:32:33;;;;;;;;;;;;;;;-144.99;100.00;52497.00;4932567;29;19927;-71
2024/03/08 01:35:00;;;;;;;;;;;;;;;-144.99;100.00;52554.09;4923888;29;20420;-72
2024/03/08 01:37:26;;;;;;;;;;;;;;;-144.99;100.00;52533.69;4923258;29;20227;-72
2024/03/08 01:39:53;;;;;;;;;;;;;;;-144.99;100.00;52537.78;4931043;28;19915;-71
2024/03/08 01:42:22;;;;;;;;;;;;;;;-144.99;100.00;52474.59;4985533;28;19953;-72
2024/03/08 01:44:48;;;;;;;;;;;;;;;-144.99;100.00;52480.72;4949233;29;20398;-72
2024/03/08 01:47:15;;;;;;;;;;;;;;;-144.99;100.00;52509.25;4944834;28;19931;-72
2024/03/08 01:49:42;;;;;;;;;;;;;;;-144.99;100.00;52501.09;4952108;28;19969;-71
2024/03/08 01:52:08;;;;;;;;;;;;;;;-144.99;100.00;52511.28;4950804;28;19931;-72
2024/03/08 01:54:35;;;;;;;;;;;;;;;-144.99;100.00;52525.56;4930083;28;19927;-71
2024/03/08 01:57:02;;;;;;;;;;;;;;;-144.99;100.00;52537.78;4923480;28;19974;-70
2024/03/08 01:59:30;;;;;;;;;;;;;;;-144.99;100.00;52484.78;4930319;29;19958;-71
2024/03/08 02:01:59;;;;;;;;;;;;;;;-144.99;100.00;52521.47;4927016;28;19931;-70
2024/03/08 02:04:26;;;;;;;;;;;;;;;-144.99;100.00;52552.03;4932396;29;19937;-72
2024/03/08 02:06:53;;;;;;;;;;;;;;;-144.99;100.00;52533.69;4931940;28;19927;-71
2024/03/08 02:09:19;;;;;;;;;;;;;;;-144.99;100.00;52503.13;4923559;28;20365;-71
2024/03/08 02:11:46;;;;;;;;;;;;;;;-144.99;100.00;52521.47;4922720;28;20375;-71
2024/03/08 02:14:14;;;;;;;;;;;;;;;-144.99;100.00;52505.16;4930585;28;20039;-70
2024/03/08 02:16:42;;;;;;;;;;;;;;;-144.99;100.00;52525.56;4931459;28;19939;-71
2024/03/08 02:19:09;;;;;;;;;;;;;;;-144.99;100.00;52517.41;4930402;29;20030;-72
2024/03/08 02:21:37;;;;;;;;;;;;;;;-144.99;100.00;52517.41;4946810;28;19930;-72
2024/03/08 02:24:04;;;;;;;;;;;;;;;-144.99;100.00;52509.25;4931939;28;19927;-69
2024/03/08 02:26:31;;;;;;;;;;;;;;;-144.99;100.00;52513.31;4929359;29;20025;-69
2024/03/08 02:28:57;;;;;;;;;;;;;;;-144.99;100.00;52513.31;4937323;28;20021;-69
2024/03/08 02:31:24;;;;;;;;;;;;;;;-144.99;100.00;52480.72;4927801;28;20109;-69
2024/03/08 02:33:50;;;;;;;;;;;;;;;-144.99;100.00;52503.13;4931951;29;20304;-69
2024/03/08 02:36:17;;;;;;;;;;;;;;;-144.99;100.00;52505.16;4927354;28;19962;-69
2024/03/08 02:38:45;;;;;;;;;;;;;;;-144.99;100.00;52511.28;4926083;28;19974;-70
2024/03/08 02:41:12;;;;;;;;;;;;;;;-144.99;100.00;52537.78;4927280;28;20343;-67
2024/03/08 02:43:38;;;;;;;;;;;;;;;-144.99;100.00;52533.69;4948423;28;19927;-67
2024/03/08 02:46:06;;;;;;;;;;;;;;;-144.99;100.00;52505.16;4930451;28;20022;-67
2024/03/08 02:48:32;;;;;;;;;;;;;;;-144.99;100.00;52529.63;4930447;28;19970;-67
2024/03/08 02:50:59;;;;;;;;;;;;;;;-144.99;100.00;52550.00;4930041;29;20475;-72
2024/03/08 02:53:25;;;;;;;;;;;;;;;-144.99;100.00;52543.91;4930188;29;19966;-71
2024/03/08 02:55:53;;;;;;;;;;;;;;;-144.99;100.00;52511.28;4930056;28;19966;-72
2024/03/08 02:58:20;;;;;;;;;;;;;;;-144.99;100.00;52531.66;4931523;29;19930;-71
2024/03/08 03:00:46;;;;;;;;;;;;;;;-144.99;100.00;52509.25;4930778;28;19931;-71
2024/03/08 03:03:13;;;;;;;;;;;;;;;-144.99;100.00;52513.31;4935519;29;19938;-71
2024/03/08 03:05:41;;;;;;;;;;;;;;;-144.99;100.00;52547.97;4934961;29;19958;-69
2024/03/08 03:08:08;;;;;;;;;;;;;;;-144.99;100.00;52501.09;4936575;28;19927;-71
2024/03/08 03:10:35;;;;;;;;;;;;;;;-144.99;100.00;52478.66;4929610;28;20025;-69
2024/03/08 03:13:04;;;;;;;;;;;;;;;-144.99;100.00;52511.28;4927021;28;20013;-70
2024/03/08 03:15:30;;;;;;;;;;;;;;;-144.99;100.00;52533.69;4933486;28;20392;-69
2024/03/08 03:17:57;;;;;;;;;;;;;;;-144.99;100.00;52519.44;4933942;28;19931;-72
2024/03/08 03:20:26;;;;;;;;;;;;;;;-144.99;100.00;52521.47;4925665;29;19927;-71
2024/03/08 03:22:52;;;;;;;;;;;;;;;-144.99;100.00;52488.84;4934148;28;20373;-72
2024/03/08 03:25:25;;;;;;;;;;;;;;;-144.99;100.00;52523.50;4939240;28;20359;-71
2024/03/08 03:27:51;;;;;;;;;;;;;;;-144.99;100.00;52497.00;4940860;29;19927;-72
2024/03/08 03:30:22;;;;;;;;;;;;;;;-144.99;100.00;52501.09;4949996;28;20026;-72
2024/03/08 03:32:50;;;;;;;;;;;;;;;-144.99;100.00;52492.94;4929019;29;20384;-71
2024/03/08 03:35:17;;;;;;;;;;;;;;;-144.99;100.00;52488.84;4929033;28;19935;-72
2024/03/08 03:37:45;;;;;;;;;;;;;;;-144.99;100.00;52513.31;4933549;29;19931;-71
2024/03/08 03:40:12;;;;;;;;;;;;;;;-144.99;100.00;52554.09;4932324;29;20018;-73
2024/03/08 03:42:39;;;;;;;;;;;;;;;-144.99;100.00;52497.00;4922962;28;20316;-78
2024/03/08 03:45:06;;;;;;;;;;;;;;;-144.99;100.00;52507.19;4933396;28;19927;-73
2024/03/08 03:47:34;;;;;;;;;;;;;;;-144.99;100.00;52497.00;4933045;29;19931;-73
2024/03/08 03:50:02;;;;;;;;;;;;;;;-144.99;100.00;52550.00;4933194;29;19927;-73
2024/03/08 03:52:29;;;;;;;;;;;;;;;-144.99;100.00;52509.25;4933493;28;20013;-73
2024/03/08 03:54:56;;;;;;;;;;;;;;;-144.99;100.00;52521.47;4930506;29;19981;-73
2024/03/08 03:57:23;;;;;;;;;;;;;;;-144.99;100.00;52505.16;4933136;28;19998;-73
2024/03/08 03:59:50;;;;;;;;;;;;;;;-144.99;100.00;52513.31;4933969;28;20380;-72
2024/03/08 04:02:17;;;;;;;;;;;;;;;-144.99;100.00;52537.78;4926485;28;19981;-73
2024/03/08 04:04:45;;;;;;;;;;;;;;;-144.99;100.00;52523.50;4949980;28;19938;-74
2024/03/08 04:07:11;;;;;;;;;;;;;;;-144.99;100.00;52550.00;4946165;28;19962;-75
2024/03/08 04:09:38;;;;;;;;;;;;;;;-144.99;100.00;52525.56;4931836;28;19931;-74
2024/03/08 04:12:05;;;;;;;;;;;;;;;-144.99;100.00;52497.00;4926960;28;20020;-75
2024/03/08 04:14:31;;;;;;;;;;;;;;;-144.99;100.00;52497.00;4927830;29;19981;-76
2024/03/08 04:16:58;;;;;;;;;;;;;;;-144.99;100.00;52529.63;4928491;29;20213;-75
2024/03/08 04:19:26;;;;;;;;;;;;;;;-144.99;100.00;52533.69;4932836;28;20015;-75
2024/03/08 04:21:54;;;;;;;;;;;;;;;-144.99;100.00;52513.31;4935538;28;19930;-74
2024/03/08 04:24:20;;;;;;;;;;;;;;;-144.99;100.00;52533.69;4933441;28;19948;-74
2024/03/08 04:26:47;;;;;;;;;;;;;;;-144.99;100.00;52513.31;4922419;28;19951;-73
2024/03/08 04:29:14;;;;;;;;;;;;;;;-144.99;100.00;52517.41;4947403;28;19939;-74
2024/03/08 04:31:40;;;;;;;;;;;;;;;-144.99;100.00;52525.56;4955492;28;19945;-73
2024/03/08 04:34:08;;;;;;;;;;;;;;;-144.99;100.00;52545.94;4921317;29;19981;-75
2024/03/08 04:36:35;;;;;;;;;;;;;;;-144.99;100.00;52525.56;4929718;29;19943;-76
2024/03/08 04:39:03;;;;;;;;;;;;;;;-144.99;100.00;52529.63;4929019;29;20075;-79
2024/03/08 04:41:30;;;;;;;;;;;;;;;-144.99;100.00;52505.16;4928907;29;20054;-80
2024/03/08 04:43:57;;;;;;;;;;;;;;;-144.99;100.00;52523.50;4948629;28;20410;-80
2024/03/08 04:46:24;;;;;;;;;;;;;;;-144.99;100.00;52507.19;4954741;28;19986;-77
2024/03/08 04:48:50;;;;;;;;;;;;;;;-144.99;100.00;52517.41;4955212;29;19966;-78
2024/03/08 04:51:19;;;;;;;;;;;;;;;-144.99;100.00;52507.19;4936777;29;19972;-72
2024/03/08 04:53:45;;;;;;;;;;;;;;;-144.99;100.00;52529.63;4928025;29;20040;-72
2024/03/08 04:56:13;;;;;;;;;;;;;;;-144.99;100.00;52484.78;4930549;28;20002;-74
2024/03/08 04:58:40;;;;;;;;;;;;;;;-144.99;100.00;52574.47;4928821;29;20028;-74
2024/03/08 05:01:10;;;;;;;;;;;;;;;-144.99;100.00;52511.28;4930005;29;20045;-74
2024/03/08 05:03:36;;;;;;;;;;;;;;;-144.99;100.00;52533.69;4926453;28;19933;-74
2024/03/08 05:06:03;;;;;;;;;;;;;;;-144.99;100.00;52484.78;4948778;29;19943;-75
2024/03/08 05:08:30;;;;;;;;;;;;;;;-144.99;100.00;52497.00;4938321;28;19961;-74
2024/03/08 05:10:56;;;;;;;;;;;;;;;-144.99;100.00;52505.16;4926074;28;20449;-73
2024/03/08 05:13:26;;;;;;;;;;;;;;;-144.99;100.00;52521.47;4930858;28;21462;-73
2024/03/08 05:15:54;;;;;;;;;;;;;;;-144.99;100.00;52523.50;4931212;28;20042;-73
2024/03/08 05:18:21;;;;;;;;;;;;;;;-144.99;100.00;52509.25;4925456;28;20410;-73
2024/03/08 05:20:48;;;;;;;;;;;;;;;-144.99;100.00;52501.09;4925463;28;19971;-73
2024/03/08 05:23:15;;;;;;;;;;;;;;;-144.99;100.00;52533.69;4929475;28;20022;-72
2024/03/08 05:25:42;;;;;;;;;;;;;;;-144.99;100.00;52509.25;4929176;29;20018;-72
2024/03/08 05:28:08;;;;;;;;;;;;;;;-144.99;100.00;52521.47;4931169;29;19952;-72
2024/03/08 05:30:39;;;;;;;;;;;;;;;-144.99;100.00;52523.50;4943455;28;20012;-72
2024/03/08 05:33:05;;;;;;;;;;;;;;;-144.99;100.00;52513.31;4931497;29;20381;-72
2024/03/08 05:35:32;;;;;;;;;;;;;;;-144.99;100.00;52499.06;4931058;29;20407;-72
2024/03/08 05:37:58;;;;;;;;;;;;;;;-144.99;100.00;52519.44;4926821;29;19945;-76
2024/03/08 05:40:25;;;;;;;;;;;;;;;-144.99;100.00;52482.75;4926843;29;19973;-75
2024/03/08 05:42:51;;;;;;;;;;;;;;;-144.99;100.00;52501.09;4924955;29;19989;-75
2024/03/08 05:45:18;;;;;;;;;;;;;;;-144.99;100.00;52497.00;4930256;29;19967;-75
2024/03/08 05:47:46;;;;;;;;;;;;;;;-144.99;100.00;52488.84;4927035;28;19995;-73
2024/03/08 05:50:12;;;;;;;;;;;;;;;-144.99;100.00;52531.66;4923738;28;20033;-72
2024/03/08 05:52:39;;;;;;;;;;;;;;;-144.99;100.00;52545.94;4927715;28;19965;-73
2024/03/08 05:55:07;;;;;;;;;;;;;;;-144.99;100.00;52460.31;4927822;29;19948;-71
2024/03/08 05:57:34;;;;;;;;;;;;;;;-144.99;100.00;52505.16;4928686;29;19981;-71
2024/03/08 06:00:00;;;;;;;;;;;;;;;-144.99;100.00;52472.56;4929475;29;20027;-72
2024/03/08 06:02:27;;;;;;;;;;;;;;;-144.99;100.00;52545.94;4925855;29;19941;-72
2024/03/08 06:04:54;;;;;;;;;;;;;;;-144.99;100.00;52543.91;4931823;29;19942;-72
2024/03/08 06:07:21;;;;;;;;;;;;;;;-144.99;100.00;52554.09;4931240;29;19935;-71
2024/03/08 06:09:48;;;;;;;;;;;;;;;-144.99;100.00;52509.25;4925768;29;20395;-72
2024/03/08 06:12:18;;;;;;;;;;;;;;;-144.99;100.00;52517.41;4928308;29;19949;-71
2024/03/08 06:14:45;;;;;;;;;;;;;;;-144.99;100.00;52525.56;4925175;29;20040;-70
2024/03/08 06:17:11;;;;;;;;;;;;;;;-144.99;100.00;52492.94;4931526;28;19990;-71
2024/03/08 06:19:38;;;;;;;;;;;;;;;-144.99;100.00;52482.75;4932214;28;20038;-72
2024/03/08 06:22:06;;;;;;;;;;;;;;;-144.99;100.00;52476.63;4936309;28;19932;-74
2024/03/08 06:24:33;;;;;;;;;;;;;;;-144.99;100.00;52509.25;4928822;28;20004;-73
2024/03/08 06:27:00;;;;;;;;;;;;;;;-144.99;100.00;52513.31;4932203;29;19927;-73
2024/03/08 06:29:27;;;;;;;;;;;;;;;-144.99;100.00;52523.50;4941732;28;19936;-73
2024/03/08 06:31:53;;;;;;;;;;;;;;;-144.99;100.00;52537.78;4931871;28;19934;-71
2024/03/08 06:34:20;;;;;;;;;;;;;;;-144.99;100.00;52486.81;4935817;28;19946;-73
2024/03/08 06:36:46;;;;;;;;;;;;;;;-144.99;100.00;52494.97;4935865;28;20436;-72
2024/03/08 06:39:14;;;;;;;;;;;;;;;-144.99;100.00;52507.19;4936163;28;20367;-73
2024/03/08 06:41:41;;;;;;;;;;;;;;;-144.99;100.00;52509.25;4936501;28;20304;-69
2024/03/08 06:44:08;;;;;;;;;;;;;;;-144.99;100.00;52494.97;4936016;29;19947;-70
2024/03/08 06:46:35;;;;;;;;;;;;;;;-144.99;100.00;52476.63;4934377;29;20023;-69
2024/03/08 06:49:03;;;;;;;;;;;;;;;-144.99;100.00;52525.56;4968210;28;19970;-70
2024/03/08 06:51:29;;;;;;;;;;;;;;;-144.99;100.00;52505.16;4940070;28;19958;-71
2024/03/08 06:53:57;;;;;;;;;;;;;;;-144.99;100.00;52488.84;4937798;29;20312;-70
2024/03/08 06:56:25;;;;;;;;;;;;;;;-144.99;100.00;52488.84;4935614;29;19947;-72
2024/03/08 06:58:51;;;;;;;;;;;;;;;-144.99;100.00;52472.56;4944316;28;19944;-72
2024/03/08 07:01:18;;;;;;;;;;;;;;;-144.99;100.00;52537.78;4943714;28;19997;-70
2024/03/08 07:03:44;;;;;;;;;;;;;;;-144.99;100.00;52476.63;4952461;28;19948;-70
2024/03/08 07:06:11;;;;;;;;;;;;;;;-144.99;100.00;52501.09;4948417;28;19955;-68
2024/03/08 07:08:38;;;;;;;;;;;;;;;-144.99;100.00;52545.94;4948380;28;19927;-69
2024/03/08 07:11:04;;;;;;;;;;;;;;;-144.99;100.00;52468.47;4950604;29;19942;-69
2024/03/08 07:13:32;;;;;;;;;;;;;;;-144.99;100.00;52513.31;4951590;28;19950;-70
2024/03/08 07:16:00;;;;;;;;;;;;;;;-144.99;100.00;52509.25;4992322;23;19960;-69
2024/03/08 07:18:29;;;;;;;;;;;;;;;-144.99;100.00;52488.84;5032978;28;19964;-72
2024/03/08 07:20:56;;;;;;;;;;;;;;;-144.99;100.00;52492.94;5032962;28;20161;-70
2024/03/08 07:26:03;;;;;;;;;;;;;;;-144.99;100.00;52492.94;5032123;28;19943;-69
2024/03/08 07:28:30;;;;;;;;;;;;;;;-144.99;100.00;52486.81;5032081;28;19941;-69
2024/03/08 07:31:12;;;;;;;;;;;;;;;-144.99;100.00;52460.31;5035904;28;19981;-70
2024/03/08 07:33:39;;;;;;;;;;;;;;;-144.99;98.81;52497.00;5032550;28;20414;-68
2024/03/08 07:36:05;;;;;;;;;;;;;;;-144.99;99.00;52501.09;5032427;28;19947;-70
2024/03/08 07:38:32;;;;;;;;;;;;;;;-144.99;98.49;52472.56;5032292;28;19940;-70
2024/03/08 07:40:58;;;;;;;;;;;;;;;-144.99;96.85;52480.72;5032651;28;20070;-70
2024/03/08 07:43:25;;;;;;;;;;;;;;;-144.99;96.97;52464.41;5031333;28;20053;-69
2024/03/08 07:45:52;;;;;;;;;;;;;;;-144.99;94.78;52460.31;5032473;28;20025;-69
2024/03/08 07:48:21;;;;;;;;;;;;;;;-144.99;95.40;52466.44;5031699;28;20340;-64
2024/03/08 07:50:49;;;;;;;;;;;;;;;-144.99;95.78;52462.34;5031825;28;19963;-66
2024/03/08 07:53:16;;;;;;;;;;;;;;;-144.99;93.35;52452.16;5031389;28;19959;-65
2024/03/08 07:55:44;;;;;;;;;;;;;;;-144.99;94.65;52505.16;5031461;28;19960;-66
2024/03/08 07:58:13;;;;;;;;;;;;;;;-144.99;92.10;52476.63;5030860;28;19935;-65
2024/03/08 08:00:41;;;;;;;;;;;;;;;-144.99;92.04;52452.16;5031093;28;19970;-66
2024/03/08 08:03:08;;;;;;;;;;;;;;;-144.99;90.99;52454.22;5024883;28;19947;-66
2024/03/08 08:05:38;;;;;;;;;;;;;;;-144.99;88.72;52452.16;5030594;28;20262;-66
2024/03/08 08:08:06;;;;;;;;;;;;;;;-144.99;88.37;52490.91;5033439;28;20022;-69
2024/03/08 08:10:32;;;;;;;;;;;;;;;-144.99;86.35;52488.84;5028353;28;20360;-67
2024/03/08 08:12:59;;;;;;;;;;;;;;;-144.99;85.40;52444.03;5032014;28;19933;-68
2024/03/08 08:15:26;;;;;;;;;;;;;;;-144.99;86.12;52492.94;5029631;28;20283;-68
2024/03/08 08:17:52;;;;;;;;;;;;;;;-144.99;84.21;52452.16;5024992;28;19940;-67
2024/03/08 08:20:19;;;;;;;;;;;;;;;-144.99;83.98;52452.16;5031001;28;19965;-68
2024/03/08 08:22:48;;;;;;;;;;;;;;;-144.99;81.89;52452.16;5030973;28;19940;-68
2024/03/08 08:25:15;;;;;;;;;;;;;;;-144.99;82.40;52431.78;5034991;28;19950;-68
2024/03/08 08:27:43;;;;;;;;;;;;;;;-144.99;81.86;52492.94;5031007;28;19970;-68
2024/03/08 08:30:11;;;;;;;;;;;;;;;-144.99;80.63;52468.47;5032695;28;19990;-67
2024/03/08 08:32:38;;;;;;;;;;;;;;;-144.99;80.70;52448.09;5030997;28;20034;-67
2024/03/08 08:35:06;;;;;;;;;;;;;;;-144.99;79.26;52466.44;5031805;28;19973;-68
2024/03/08 08:37:33;;;;;;;;;;;;;;;-144.99;77.12;52464.41;5031518;28;19947;-69
2024/03/08 08:40:05;;;;;;;;;;;;;;;-144.99;77.49;52450.13;5036333;28;20094;-66
2024/03/08 08:42:32;;;;;;;;;;;;;;;-144.99;75.79;52419.56;5032862;28;19936;-69
2024/03/08 08:44:58;;;;;;;;;;;;;;;-144.99;75.93;52448.09;5032444;28;19939;-68
2024/03/08 08:47:25;;;;;;;;;;;;;;;-144.99;74.69;52492.94;5030960;28;19942;-69
2024/03/08 08:49:51;;;;;;;;;;;;;;;-144.99;74.65;52460.31;5031257;28;20003;-69
2024/03/08 08:52:18;;;;;;;;;;;;;;;-144.99;73.91;52411.41;5029853;28;20010;-70
2024/03/08 08:54:45;;;;;;;;;;;;;;;-144.99;73.95;52452.16;5029631;28;19960;-70
2024/03/08 08:57:13;;;;;;;;;;;;;;;-144.99;72.96;52427.72;5030147;28;19939;-71
2024/03/08 08:59:40;;;;;;;;;;;;;;;-144.99;72.80;52456.25;5026067;28;19963;-70
2024/03/08 09:02:08;;;;;;;;;;;;;;;-144.99;72.56;52439.94;5026457;28;19978;-70
2024/03/08 09:04:35;;;;;;;;;;;;;;;-144.99;71.68;52439.94;5024045;28;19947;-70
2024/03/08 09:07:02;;;;;;;;;;;;;;;-144.99;70.75;52482.75;5027864;28;20382;-71
2024/03/08 09:09:29;;;;;;;;;;;;;;;-144.99;70.82;52433.81;5029895;28;20007;-71
2024/03/08 09:11:56;;;;;;;;;;;;;;;-144.99;70.24;52386.94;5024932;28;19944;-71
2024/03/08 09:14:26;;;;;;;;;;;;;;;-144.99;69.51;52456.25;5024186;28;19959;-70
2024/03/08 09:16:52;;;;;;;;;;;;;;;-144.99;69.84;52431.78;5030191;28;20360;-71
2024/03/08 09:19:19;;;;;;;;;;;;;;;-144.99;70.14;52476.63;5022130;28;20022;-70
2024/03/08 09:21:45;;;;;;;;;;;;;;;-144.99;69.20;52391.03;5025760;28;19957;-71
2024/03/08 09:24:13;;;;;;;;;;;;;;;-144.99;69.25;52419.56;5030720;28;19991;-70
2024/03/08 09:26:42;;;;;;;;;;;;;;;-144.99;68.24;52399.19;5030432;28;20049;-71
2024/03/08 09:29:10;;;;;;;;;;;;;;;-144.99;67.93;52407.31;5032428;28;19939;-71
2024/03/08 09:31:39;;;;;;;;;;;;;;;-144.99;67.07;52427.72;5030306;28;19939;-68
2024/03/08 09:34:08;;;;;;;;;;;;;;;-144.99;66.96;52348.22;5030092;28;19943;-69
2024/03/08 09:36:34;;;;;;;;;;;;;;;-144.99;66.66;52403.25;5027311;28;20003;-69
2024/03/08 09:39:02;;;;;;;;;;;;;;;-144.99;66.66;52419.56;5029946;28;19989;-69
2024/03/08 09:41:30;;;;;;;;;;;;;;;-144.99;66.58;52399.19;5026460;28;20500;-69
2024/03/08 09:43:59;;;;;;;;;;;;;;;-144.99;66.34;52386.94;5029947;28;19929;-69
2024/03/08 09:46:26;;;;;;;;;;;;;;;-144.99;65.54;52399.19;5029370;28;19949;-69
2024/03/08 09:48:54;;;;;;;;;;;;;;;-144.99;64.40;52395.09;5023196;28;19979;-70
2024/03/08 09:51:23;;;;;;;;;;;;;;;-144.99;64.58;52407.31;5027577;28;19968;-70
2024/03/08 09:53:50;;;;;;;;;;;;;;;-144.99;64.41;52350.25;5024432;28;19988;-71
2024/03/08 09:56:16;;;;;;;;;;;;;;;-144.99;63.87;52419.56;5027732;28;20418;-71
2024/03/08 09:59:00;;;;;;;;;;;;;;;-144.99;63.82;52374.72;5039503;28;19983;-70
2024/03/08 10:01:27;;;;;;;;;;;;;;;-144.99;63.15;52399.19;5039640;28;19925;-70
2024/03/08 10:03:55;;;;;;;;;;;;;;;-144.99;63.34;52378.78;5025087;28;19947;-70
2024/03/08 10:06:23;;;;;;;;;;;;;;;-144.99;63.15;52366.56;5027126;28;19940;-70
2024/03/08 10:08:51;;;;;;;;;;;;;;;-144.99;62.42;52348.22;5029484;28;20384;-70
2024/03/08 10:11:18;;;;;;;;;;;;;;;-144.99;62.11;52370.63;5028962;28;20431;-70
2024/03/08 10:13:46;;;;;;;;;;;;;;;-144.99;61.42;52321.72;5030866;28;19984;-70
2024/03/08 10:16:12;;;;;;;;;;;;;;;-144.99;60.02;52350.25;5028640;28;20034;-69
2024/03/08 10:18:39;;;;;;;;;;;;;;;-144.99;60.53;52395.09;5020964;28;20039;-70
2024/03/08 10:21:09;;;;;;;;;;;;;;;-144.99;60.43;52329.88;5025189;28;19963;-70
2024/03/08 10:23:36;;;;;;;;;;;;;;;-144.99;59.61;52307.47;5028931;28;19949;-70
2024/03/08 10:26:10;;;;;;;;;;;;;;;-144.99;59.44;52350.25;5029310;28;20030;-71
2024/03/08 10:28:37;;;;;;;;;;;;;;;-144.99;58.56;52293.19;5026155;28;20406;-70
2024/03/08 10:31:03;;;;;;;;;;;;;;;-144.99;57.76;52323.75;5031285;28;19975;-70
2024/03/08 10:33:30;;;;;;;;;;;;;;;-144.99;56.88;52305.41;5028272;28;19961;-70
2024/03/08 10:35:57;;;;;;;;;;;;;;;-144.99;56.87;52301.34;5029198;28;19940;-70
2024/03/08 10:38:27;;;;;;;;;;;;;;;-144.99;57.92;52280.97;5029313;28;19965;-69
2024/03/08 10:40:55;;;;;;;;;;;;;;;-144.99;58.05;52325.81;5026688;28;20054;-70
2024/03/08 10:43:25;;;;;;;;;;;;;;;-144.99;58.17;52313.56;5029344;28;20407;-70
2024/03/08 10:45:57;;;;;;;;;;;;;;;-144.99;58.51;52280.97;5030662;28;19960;-70
2024/03/08 10:48:31;;;;;;;;;;;;;;;-144.99;57.96;52272.81;5018668;28;19946;-72
2024/03/08 10:50:58;;;;;;;;;;;;;;;-144.99;56.47;52287.06;5030450;28;19961;-71
2024/03/08 10:53:27;;;;;;;;;;;;;;;-144.99;56.57;52285.03;5032719;28;19999;-71
2024/03/08 10:55:54;;;;;;;;;;;;;;;-144.99;56.07;52256.50;5040748;28;19925;-72
2024/03/08 10:58:21;;;;;;;;;;;;;;;-144.99;55.82;52297.25;5037786;28;19941;-72
2024/03/08 11:00:49;;;;;;;;;;;;;;;-144.99;55.57;52260.56;5025737;28;20054;-72
2024/03/08 11:03:31;;;;;;;;;;;;;;;-144.99;55.98;52248.34;5041213;28;19940;-72
2024/03/08 11:05:57;;;;;;;;;;;;;;;-144.99;55.53;52270.78;5038193;28;20389;-73
2024/03/08 11:08:24;;;;;;;;;;;;;;;-144.99;56.37;52272.81;5039330;28;19949;-70
2024/03/08 11:10:53;;;;;;;;;;;;;;;-144.99;55.35;52266.69;5030224;28;20014;-71
2024/03/08 11:13:36;;;;;;;;;;;;;;;-144.99;54.84;52270.78;5032366;28;20381;-71
2024/03/08 11:16:05;;;;;;;;;;;;;;;-144.99;55.64;52297.25;5024705;28;19943;-70
2024/03/08 11:18:33;;;;;;;;;;;;;;;-144.99;55.84;52297.25;5034614;28;19940;-71
2024/03/08 11:20:59;;;;;;;;;;;;;;;-144.99;55.10;52254.47;5048530;28;19963;-70
2024/03/08 11:23:26;;;;;;;;;;;;;;;-144.99;55.87;52272.81;5047129;28;19939;-70
2024/03/08 11:25:54;;;;;;;;;;;;;;;-144.99;55.95;52276.88;5044278;28;20012;-71
2024/03/08 11:28:22;;;;;;;;;;;;;;;-144.99;55.15;52278.91;5041709;28;19940;-73
2024/03/08 11:31:09;;;;;;;;;;;;;;;-144.99;54.57;52240.19;5045615;28;19957;-73
2024/03/08 11:33:36;;;;;;;;;;;;;;;-144.99;54.32;52242.22;5036822;28;19939;-73
2024/03/08 11:36:04;;;;;;;;;;;;;;;-144.99;53.51;52248.34;5044118;28;19942;-74
2024/03/08 11:38:33;;;;;;;;;;;;;;;-144.99;53.29;52203.50;5040511;28;20308;-72
2024/03/08 11:41:01;;;;;;;;;;;;;;;-144.99;52.93;52203.50;5035333;28;19981;-72
2024/03/08 11:43:27;;;;;;;;;;;;;;;-144.99;52.86;52207.59;5032036;28;20023;-72
2024/03/08 11:46:08;;;;;;;;;;;;;;;-144.99;52.03;52217.78;5037553;28;19948;-72
2024/03/08 11:48:35;;;;;;;;;;;;;;;-144.99;51.55;52183.13;5040168;28;19925;-71
2024/03/08 11:51:04;;;;;;;;;;;;;;;-144.99;51.01;52179.06;5040303;28;20020;-71
2024/03/08 11:53:31;;;;;;;;;;;;;;;-144.99;51.55;52199.44;5043277;28;19971;-71
2024/03/08 11:56:07;;;;;;;;;;;;;;;-144.99;51.81;52240.19;5034495;28;20270;-70
2024/03/08 11:58:36;;;;;;;;;;;;;;;-144.99;51.96;52211.66;5026245;28;19945;-71
2024/03/08 12:01:04;;;;;;;;;;;;;;;-144.99;52.61;52221.84;5033525;28;19933;-71
2024/03/08 12:03:33;;;;;;;;;;;;;;;-144.99;51.88;52185.16;5034792;28;19980;-70
2024/03/08 12:06:00;;;;;;;;;;;;;;;-144.99;51.86;52238.16;5035811;28;19965;-70
2024/03/08 12:08:28;;;;;;;;;;;;;;;-144.99;51.46;52203.50;5036784;28;20033;-70
2024/03/08 12:10:59;;;;;;;;;;;;;;;-144.99;51.33;52197.41;5034719;28;20013;-71
2024/03/08 12:13:29;;;;;;;;;;;;;;;-144.99;51.16;52215.75;5037546;28;20306;-72
2024/03/08 12:15:56;;;;;;;;;;;;;;;-144.99;50.72;52199.44;5029620;28;20053;-71
2024/03/08 12:18:23;;;;;;;;;;;;;;;-144.99;50.61;52203.50;5042193;28;20016;-71
2024/03/08 12:20:49;;;;;;;;;;;;;;;-144.99;50.52;52191.28;5040179;28;20194;-69
2024/03/08 12:23:16;;;;;;;;;;;;;;;-144.99;50.29;52179.06;5031850;28;20050;-69
2024/03/08 12:25:43;;;;;;;;;;;;;;;-144.99;50.51;52154.59;5031349;28;19947;-69